createdAt,value
2019-04-21T00:04:24.834Z,23.13
2019-04-21T00:07:03.289Z,22.93
2019-04-21T00:09:32.576Z,19.40
2019-04-21T00:12:02.495Z,20.70
2019-04-21T00:14:23.691Z,23.23
2019-04-21T00:16:51.073Z,16.33
2019-04-21T00:19:35.361Z,23.10
2019-04-21T00:22:14.910Z,21.53
2019-04-21T00:24:44.415Z,24.43
2019-04-21T00:27:21.638Z,21.63
2019-04-21T00:29:51.990Z,20.50
2019-04-21T00:32:19.563Z,20.60
2019-04-21T00:34:34.266Z,21.10
2019-04-21T00:37:15.547Z,18.83
2019-04-21T00:40:02.195Z,18.73
2019-04-21T00:42:22.856Z,20.40
2019-04-21T00:44:52.092Z,20.63
2019-04-21T00:47:27.906Z,18.17
2019-04-21T00:49:56.658Z,20.07
2019-04-21T00:53:27.361Z,17.90
2019-04-21T00:55:30.963Z,20.43
2019-04-21T00:57:51.451Z,21.50
2019-04-21T01:00:26.148Z,18.87
2019-04-21T01:02:57.163Z,21.13
2019-04-21T01:05:22.438Z,18.53
2019-04-21T01:07:48.254Z,20.53
2019-04-21T01:10:09.345Z,17.60
2019-04-21T01:12:52.684Z,18.00
2019-04-21T01:15:26.121Z,20.50
2019-04-21T01:17:51.901Z,18.67
2019-04-21T01:20:12.978Z,20.53
2019-04-21T01:22:28.529Z,20.37
2019-04-21T01:25:06.986Z,20.47
2019-04-21T01:27:50.765Z,19.77
2019-04-21T01:30:18.907Z,18.43
2019-04-21T01:32:51.505Z,21.17
2019-04-21T01:35:18.747Z,20.97
2019-04-21T01:37:52.853Z,20.43
2019-04-21T01:40:24.182Z,20.27
2019-04-21T01:43:23.355Z,19.73
2019-04-21T01:45:54.938Z,22.07
2019-04-21T01:48:21.556Z,19.20
2019-04-21T01:50:51.237Z,21.27
2019-04-21T01:53:51.513Z,18.73
2019-04-21T01:58:59.217Z,15.13
2019-04-21T02:01:42.418Z,13.37
2019-04-21T02:04:12.160Z,13.17
2019-04-21T02:06:39.045Z,20.13
2019-04-21T02:09:13.082Z,17.67
2019-04-21T02:16:54.124Z,25.30
2019-04-21T02:21:50.440Z,18.83
2019-04-21T02:24:35.182Z,19.93
2019-04-21T02:26:59.435Z,19.10
2019-04-21T02:32:10.540Z,20.43
2019-04-21T02:34:46.447Z,20.13
2019-04-21T02:42:18.674Z,18.80
2019-04-21T02:47:27.486Z,66.77
2019-04-21T02:52:31.666Z,72.23
2019-04-21T02:57:18.457Z,38.20
2019-04-21T03:02:58.617Z,21.40
2019-04-21T03:05:46.851Z,21.53
2019-04-21T03:08:19.102Z,17.00
2019-04-21T03:13:29.870Z,19.83
2019-04-21T03:18:32.553Z,24.67
2019-04-21T03:23:29.536Z,18.07
2019-04-21T03:26:06.597Z,21.33
2019-04-21T03:28:32.122Z,20.40
2019-04-21T03:34:14.791Z,23.27
2019-04-21T03:40:57.265Z,20.90
2019-04-21T03:43:28.288Z,24.50
2019-04-21T03:48:41.061Z,18.87
2019-04-21T03:50:59.356Z,23.30
2019-04-21T03:53:51.684Z,19.90
2019-04-21T03:56:27.012Z,19.73
2019-04-21T03:58:54.419Z,16.43
2019-04-21T04:12:26.802Z,25.20
2019-04-21T04:15:00.715Z,27.47
2019-04-21T04:17:25.488Z,20.43
2019-04-21T04:20:05.996Z,19.40
2019-04-21T04:22:33.974Z,19.63
2019-04-21T04:27:37.723Z,16.80
2019-04-21T04:33:07.879Z,21.57
2019-04-21T04:45:58.839Z,22.70
2019-04-21T04:48:29.072Z,20.67
2019-04-21T04:53:58.828Z,14.00
2019-04-21T04:56:18.319Z,16.80
2019-04-21T05:03:48.904Z,20.03
2019-04-21T05:11:46.764Z,18.20
2019-04-21T05:20:05.512Z,13.87
2019-04-21T05:22:21.967Z,9.77
2019-04-21T05:24:52.647Z,9.73
2019-04-21T05:27:39.904Z,12.23
2019-04-21T05:30:23.273Z,7.13
2019-04-21T05:33:03.637Z,9.83
2019-04-21T05:35:57.286Z,7.97
2019-04-21T05:41:13.083Z,8.30
2019-04-21T05:43:50.344Z,9.93
2019-04-21T05:46:21.241Z,7.53
2019-04-21T05:48:52.554Z,9.20
2019-04-21T05:51:39.616Z,9.07
2019-04-21T05:54:24.677Z,9.97
2019-04-21T05:56:40.718Z,11.83
2019-04-21T05:59:13.505Z,7.63
2019-04-21T06:01:46.731Z,9.00
2019-04-21T06:04:46.916Z,33.07
2019-04-21T06:07:12.247Z,8.97
2019-04-21T06:09:39.956Z,15.43
2019-04-21T06:12:05.925Z,6.87
2019-04-21T06:14:37.007Z,7.03
2019-04-21T06:19:43.271Z,28.27
2019-04-21T06:27:27.583Z,15.40
2019-04-21T06:29:55.756Z,6.23
2019-04-21T06:32:38.510Z,7.83
2019-04-21T06:42:51.458Z,9.47
2019-04-21T06:48:11.219Z,9.40
2019-04-21T06:51:04.234Z,6.80
2019-04-21T06:56:25.253Z,16.30
2019-04-21T06:58:47.994Z,7.97
2019-04-21T07:01:21.636Z,8.93
2019-04-21T07:03:49.364Z,11.17
2019-04-21T07:06:18.365Z,7.00
2019-04-21T07:14:15.029Z,7.27
2019-04-21T07:16:36.705Z,7.10
2019-04-21T07:19:05.909Z,21.13
2019-04-21T07:21:31.101Z,9.13
2019-04-21T07:23:59.143Z,9.73
2019-04-21T07:26:51.561Z,47.47
2019-04-21T07:32:04.344Z,26.30
2019-04-21T07:39:27.079Z,15.77
2019-04-21T07:41:53.987Z,12.23
2019-04-21T07:44:22.817Z,12.37
2019-04-21T07:46:54.007Z,9.37
2019-04-21T07:49:53.777Z,29.87
2019-04-21T07:52:39.498Z,27.30
2019-04-21T07:55:18.641Z,41.40
2019-04-21T07:57:36.628Z,28.67
2019-04-21T08:02:34.155Z,9.93
2019-04-21T08:05:16.044Z,9.03
2019-04-21T08:08:06.469Z,7.77
2019-04-21T08:10:28.605Z,10.10
2019-04-21T08:12:54.470Z,6.93
2019-04-21T08:15:29.123Z,6.63
2019-04-21T08:17:57.154Z,7.67
2019-04-21T08:23:25.621Z,5.90
2019-04-21T08:25:58.958Z,9.90
2019-04-21T08:28:22.532Z,6.60
2019-04-21T08:30:51.905Z,8.20
2019-04-21T08:36:14.426Z,7.37
2019-04-21T08:38:20.402Z,6.83
2019-04-21T08:40:55.839Z,6.50
2019-04-21T08:43:30.616Z,10.17
2019-04-21T08:45:52.945Z,6.20
2019-04-21T08:48:25.649Z,10.23
2019-04-21T08:51:08.305Z,6.77
2019-04-21T08:53:26.052Z,7.87
2019-04-21T08:56:18.442Z,31.33
2019-04-21T09:02:09.195Z,6.20
2019-04-21T09:04:33.473Z,7.17
2019-04-21T09:07:28.820Z,9.17
2019-04-21T09:09:42.298Z,5.20
2019-04-21T09:12:04.803Z,8.17
2019-04-21T09:14:36.628Z,6.40
2019-04-21T09:17:00.492Z,6.17
2019-04-21T09:19:51.830Z,9.67
2019-04-21T09:22:05.710Z,5.97
2019-04-21T09:24:42.906Z,6.20
2019-04-21T09:27:05.117Z,6.50
2019-04-21T09:29:49.217Z,4.93
2019-04-21T09:32:16.144Z,6.13
2019-04-21T09:34:43.766Z,7.07
2019-04-21T09:37:18.994Z,7.23
2019-04-21T09:39:43.911Z,6.97
2019-04-21T09:42:09.244Z,6.00
2019-04-21T09:50:06.633Z,6.23
2019-04-21T09:55:53.637Z,5.93
2019-04-21T09:58:24.004Z,8.67
2019-04-21T10:00:56.630Z,5.63
2019-04-21T10:03:16.306Z,7.90
2019-04-21T10:05:45.254Z,8.63
2019-04-21T10:08:16.587Z,5.17
2019-04-21T10:10:46.608Z,7.80
2019-04-21T10:13:15.657Z,5.43
2019-04-21T10:18:21.680Z,6.10
2019-04-21T10:20:51.314Z,6.63
2019-04-21T10:23:19.674Z,6.07
2019-04-21T10:28:23.330Z,8.00
2019-04-21T10:30:52.875Z,6.87
2019-04-21T10:36:35.112Z,8.50
2019-04-21T10:41:59.584Z,9.77
2019-04-21T10:44:29.443Z,6.07
2019-04-21T10:47:00.561Z,7.77
2019-04-21T10:49:30.662Z,6.73
2019-04-21T10:54:58.050Z,7.50
2019-04-21T10:59:47.970Z,5.00
2019-04-21T11:05:02.945Z,6.20
2019-04-21T11:08:00.920Z,8.03
2019-04-21T11:10:22.168Z,6.63
2019-04-21T11:15:47.531Z,12.13
2019-04-21T11:18:17.749Z,6.80
2019-04-21T11:20:47.242Z,7.63
2019-04-21T11:23:18.035Z,5.70
2019-04-21T11:25:46.218Z,6.33
2019-04-21T11:28:16.695Z,6.73
2019-04-21T11:30:46.683Z,7.10
2019-04-21T11:33:17.388Z,6.33
2019-04-21T11:35:46.728Z,7.87
2019-04-21T11:38:51.242Z,6.67
2019-04-21T11:41:05.486Z,6.97
2019-04-21T11:43:35.131Z,6.40
2019-04-21T11:46:04.847Z,8.20
2019-04-21T11:48:34.500Z,5.87
2019-04-21T11:51:23.166Z,7.60
2019-04-21T11:53:52.763Z,6.03
2019-04-21T11:59:09.967Z,5.53
2019-04-21T12:04:27.533Z,6.17
2019-04-21T12:06:57.899Z,4.53
2019-04-21T12:12:03.398Z,5.10
2019-04-21T12:14:32.527Z,5.47
2019-04-21T12:19:50.650Z,5.53
2019-04-21T12:22:25.363Z,5.50
2019-04-21T12:24:51.294Z,5.37
2019-04-21T12:27:20.518Z,5.20
2019-04-21T12:29:49.373Z,8.50
2019-04-21T12:32:38.153Z,11.33
2019-04-21T12:43:30.586Z,5.60
2019-04-21T12:46:00.049Z,6.97
2019-04-21T12:48:29.760Z,6.60
2019-04-21T12:50:59.683Z,7.57
2019-04-21T12:53:29.590Z,5.90
2019-04-21T12:55:59.926Z,5.10
2019-04-21T12:58:29.121Z,6.13
2019-04-21T13:00:59.238Z,6.33
2019-04-21T13:03:28.720Z,7.43
2019-04-21T13:05:58.028Z,7.27
2019-04-21T13:08:29.192Z,7.13
2019-04-21T13:10:58.110Z,7.03
2019-04-21T13:13:28.181Z,6.70
2019-04-21T13:15:58.177Z,6.00
2019-04-21T13:18:27.032Z,5.37
2019-04-21T13:20:59.278Z,5.80
2019-04-21T13:23:27.087Z,9.17
2019-04-21T13:25:57.054Z,5.93
2019-04-21T13:28:25.601Z,8.13
2019-04-21T13:30:54.314Z,10.27
2019-04-21T13:33:22.993Z,28.17
2019-04-21T13:44:30.986Z,7.30
2019-04-21T13:47:00.688Z,7.03
2019-04-21T13:49:29.654Z,10.83
2019-04-21T13:51:58.115Z,6.47
2019-04-21T13:54:27.426Z,10.97
2019-04-21T13:56:58.513Z,6.40
2019-04-21T13:59:28.528Z,9.30
2019-04-21T14:01:58.418Z,7.30
2019-04-21T14:04:47.356Z,7.83
2019-04-21T14:07:16.497Z,6.60
2019-04-21T14:09:54.807Z,6.37
2019-04-21T14:12:15.263Z,4.17
2019-04-21T14:19:59.419Z,5.53
2019-04-21T14:22:29.286Z,15.83
2019-04-21T14:24:57.832Z,5.43
2019-04-21T14:27:26.264Z,6.57
2019-04-21T14:29:55.580Z,3.83
2019-04-21T14:32:26.434Z,5.57
2019-04-21T14:34:55.046Z,5.03
2019-04-21T14:37:24.717Z,7.43
2019-04-21T14:40:01.858Z,5.87
2019-04-21T14:42:24.343Z,5.20
2019-04-21T14:47:46.610Z,6.00
2019-04-21T14:50:34.445Z,7.27
2019-04-21T14:53:21.850Z,5.47
2019-04-21T14:55:51.207Z,6.67
2019-04-21T14:58:21.197Z,5.60
2019-04-21T15:01:10.396Z,5.23
2019-04-21T15:03:39.998Z,5.47
2019-04-21T15:06:11.494Z,8.37
2019-04-21T15:08:40.193Z,7.70
2019-04-21T15:11:08.741Z,16.43
2019-04-21T15:13:56.084Z,4.93
2019-04-21T15:16:24.980Z,5.33
2019-04-21T15:18:54.750Z,5.00
2019-04-21T15:23:58.170Z,5.10
2019-04-21T15:26:28.469Z,5.03
2019-04-21T15:28:57.327Z,5.23
2019-04-21T15:31:30.512Z,8.80
2019-04-21T15:33:57.005Z,6.07
2019-04-21T15:36:27.230Z,8.37
2019-04-21T15:38:56.434Z,7.63
2019-04-21T15:41:26.719Z,6.27
2019-04-21T15:44:09.737Z,10.07
2019-04-21T15:49:58.953Z,8.03
2019-04-21T15:52:22.148Z,7.37
2019-04-21T15:57:46.887Z,12.30
2019-04-21T16:00:34.638Z,12.43
2019-04-21T16:03:04.530Z,11.30
2019-04-21T16:05:34.755Z,16.33
2019-04-21T16:08:03.631Z,10.30
2019-04-21T16:10:42.864Z,10.70
2019-04-21T16:13:03.467Z,14.33
2019-04-21T16:15:32.897Z,12.53
2019-04-21T16:18:01.657Z,12.43
2019-04-21T16:23:08.571Z,14.50
2019-04-21T16:25:38.996Z,15.50
2019-04-21T16:33:29.597Z,66.07
2019-04-21T16:35:58.146Z,58.70
2019-04-21T16:38:26.593Z,68.30
2019-04-21T16:40:59.756Z,133.33
2019-04-21T16:43:26.976Z,68.67
2019-04-21T16:48:30.909Z,49.80
2019-04-21T16:51:01.549Z,67.03
2019-04-21T16:53:50.318Z,49.17
2019-04-21T16:56:39.523Z,51.13
2019-04-21T16:59:28.586Z,52.40
2019-04-21T17:01:58.665Z,48.97
2019-04-21T17:04:28.749Z,34.03
2019-04-21T17:14:53.680Z,11.20
2019-04-21T17:17:51.314Z,14.83
2019-04-21T17:20:15.746Z,15.87
2019-04-21T17:22:51.519Z,23.43
2019-04-21T17:27:55.071Z,29.23
2019-04-21T17:30:24.250Z,33.50
2019-04-21T17:35:38.602Z,77.77
2019-04-21T17:38:08.446Z,97.17
2019-04-21T17:40:37.858Z,43.63
2019-04-21T17:45:59.846Z,65.90
2019-04-21T17:48:29.297Z,74.73
2019-04-21T17:51:17.665Z,68.73
2019-04-21T17:54:14.798Z,63.70
2019-04-21T17:56:59.856Z,64.37
2019-04-21T17:59:43.225Z,65.87
2019-04-21T18:04:50.999Z,67.20
2019-04-21T18:13:04.910Z,40.37
2019-04-21T18:15:44.174Z,40.47
2019-04-21T18:17:58.764Z,45.43
2019-04-21T18:20:30.330Z,53.40
2019-04-21T18:23:33.614Z,72.97
2019-04-21T18:25:57.901Z,118.73
2019-04-21T18:28:18.613Z,109.90
2019-04-21T18:34:09.913Z,96.57
2019-04-21T18:36:54.195Z,26.50
2019-04-21T18:39:49.753Z,24.03
2019-04-21T18:42:26.310Z,62.67
2019-04-21T18:48:06.790Z,74.60
2019-04-21T18:50:47.857Z,51.67
2019-04-21T18:53:32.446Z,53.40
2019-04-21T18:55:51.454Z,30.37
2019-04-21T18:58:18.131Z,45.07
2019-04-21T19:00:48.820Z,33.07
2019-04-21T19:03:25.240Z,31.37
2019-04-21T19:05:53.183Z,15.47
2019-04-21T19:11:15.121Z,14.67
2019-04-21T19:14:17.561Z,14.07
2019-04-21T19:16:33.664Z,14.40
2019-04-21T19:19:33.037Z,18.90
2019-04-21T19:21:24.548Z,18.57
2019-04-21T19:24:02.994Z,18.33
2019-04-21T19:26:40.987Z,14.13
2019-04-21T19:29:06.257Z,12.30
2019-04-21T19:31:50.627Z,14.73
2019-04-21T19:34:08.250Z,16.47
2019-04-21T19:36:32.773Z,14.10
2019-04-21T19:39:10.743Z,14.90
2019-04-21T19:41:45.749Z,17.83
2019-04-21T19:44:17.426Z,17.30
2019-04-21T19:46:49.169Z,10.73
2019-04-21T19:49:30.468Z,13.67
2019-04-21T19:51:44.057Z,10.90
2019-04-21T19:54:13.263Z,9.77
2019-04-21T19:56:34.046Z,9.53
2019-04-21T19:59:03.471Z,10.03
2019-04-21T20:01:32.611Z,18.20
2019-04-21T20:04:02.720Z,12.07
2019-04-21T20:06:45.600Z,8.57
2019-04-21T20:09:17.825Z,11.67
2019-04-21T20:11:47.537Z,13.17
2019-04-21T20:14:45.052Z,11.03
2019-04-21T20:16:51.678Z,8.53
2019-04-21T20:19:07.795Z,10.20
2019-04-21T20:21:33.076Z,11.70
2019-04-21T20:24:09.150Z,10.60
2019-04-21T20:26:39.105Z,8.00
2019-04-21T20:29:14.009Z,12.73
2019-04-21T20:31:46.989Z,10.10
2019-04-21T20:34:30.076Z,10.00
2019-04-21T20:36:57.316Z,6.73
2019-04-21T20:39:08.306Z,8.43
2019-04-21T20:41:45.510Z,8.17
2019-04-21T20:44:19.521Z,7.23
2019-04-21T20:46:53.135Z,7.53
2019-04-21T20:49:15.808Z,8.23
2019-04-21T20:51:54.128Z,7.43
2019-04-21T20:54:25.774Z,12.60
2019-04-21T20:56:55.118Z,14.03
2019-04-21T20:59:19.766Z,10.83
2019-04-21T21:01:53.269Z,12.10
2019-04-21T21:04:16.287Z,18.43
2019-04-21T21:06:47.122Z,14.33
2019-04-21T21:12:19.160Z,13.77
2019-04-21T21:14:31.944Z,14.23
2019-04-21T21:17:06.520Z,16.00
2019-04-21T21:19:34.580Z,11.20
2019-04-21T21:22:14.311Z,21.57
2019-04-21T21:24:50.479Z,24.17
2019-04-21T21:30:08.331Z,128.77
2019-04-21T21:32:48.189Z,83.87
2019-04-21T21:35:13.755Z,20.37
2019-04-21T21:40:51.722Z,32.37
2019-04-21T21:43:13.067Z,25.77
2019-04-21T21:45:42.169Z,17.03
2019-04-21T21:48:21.815Z,11.77
2019-04-21T21:50:50.871Z,8.83
2019-04-21T21:53:15.396Z,8.53
2019-04-21T21:55:40.584Z,7.50
2019-04-21T21:58:10.457Z,8.23
2019-04-21T22:03:38.056Z,9.27
2019-04-21T22:06:09.413Z,7.33
2019-04-21T22:08:34.249Z,12.60
2019-04-21T22:11:03.333Z,22.33
2019-04-21T22:13:37.562Z,17.03
2019-04-21T22:16:06.982Z,14.77
2019-04-21T22:18:44.019Z,11.40
2019-04-21T22:21:15.958Z,10.37
2019-04-21T22:23:39.885Z,10.97
2019-04-21T22:26:01.365Z,11.97
2019-04-21T22:28:29.797Z,12.87
2019-04-21T22:30:58.728Z,11.73
2019-04-21T22:33:34.495Z,12.70
2019-04-21T22:36:05.914Z,9.73
2019-04-21T22:38:43.729Z,10.07
2019-04-21T22:41:10.658Z,11.40
2019-04-21T22:43:36.668Z,9.50
2019-04-21T22:48:32.954Z,10.20
2019-04-21T22:51:02.988Z,11.80
2019-04-21T22:53:36.264Z,10.23
2019-04-21T22:56:10.889Z,10.00
2019-04-21T22:58:35.711Z,10.47
2019-04-21T23:01:04.881Z,8.20
2019-04-21T23:06:25.062Z,9.13
2019-04-21T23:08:51.222Z,8.03
2019-04-21T23:11:21.555Z,6.80
2019-04-21T23:13:52.669Z,6.57
2019-04-21T23:16:28.032Z,8.27
2019-04-21T23:19:10.933Z,8.10
2019-04-21T23:21:36.202Z,7.60
2019-04-21T23:24:13.591Z,7.60
2019-04-21T23:26:37.711Z,9.03
2019-04-21T23:29:14.005Z,8.23
2019-04-21T23:31:39.871Z,7.57
2019-04-21T23:33:52.588Z,13.17
2019-04-21T23:36:26.186Z,11.67
2019-04-21T23:38:55.042Z,10.17
2019-04-21T23:41:25.992Z,13.57
2019-04-21T23:44:01.875Z,10.97
2019-04-21T23:46:28.151Z,13.10
2019-04-21T23:49:07.567Z,15.30
2019-04-21T23:51:34.420Z,25.00
2019-04-21T23:53:53.494Z,37.10
2019-04-21T23:56:32.678Z,86.83
